Time;durP1;ratioP1;P1;durP2;ratioP2;P2;SDS_P1;SDS_P2;PMS_P1;PMS_P2;Temp;Humidity;BMP_temperature;BMP_pressure;BME280_temperature;BME280_humidity;BME280_pressure;Samples;Min_cycle;Max_cycle;Signal;HPM_P1;HPM_P2
2021/05/09 00:00:21;;;;;;;5.40;3.63;;;;;;;7.98;100.00;95549.69;1040637;28;20097;-74
2021/05/09 00:00:51;;;;;;;6.38;3.50;;;;;;;7.99;100.00;95545.22;1047404;28;20801;-72
2021/05/09 00:01:22;;;;;;;4.95;4.10;;;;;;;7.96;100.00;95546.50;1043030;28;20270;-73
2021/05/09 00:01:53;;;;;;;5.18;3.63;;;;;;;7.96;100.00;95541.28;1039207;28;20025;-72
2021/05/09 00:02:24;;;;;;;4.88;3.40;;;;;;;8.03;100.00;95538.47;1042373;28;20048;-72
2021/05/09 00:02:55;;;;;;;5.35;3.30;;;;;;;8.04;100.00;95550.47;1035090;28;20033;-71
2021/05/09 00:03:25;;;;;;;4.68;3.28;;;;;;;8.03;100.00;95547.09;1035034;28;20281;-70
2021/05/09 00:03:56;;;;;;;5.63;3.25;;;;;;;7.97;100.00;95535.03;1036106;28;20356;-71
2021/05/09 00:04:26;;;;;;;4.40;3.20;;;;;;;8.08;100.00;95541.13;1030803;28;20033;-70
2021/05/09 00:04:57;;;;;;;4.45;3.25;;;;;;;8.00;100.00;95531.13;1038901;28;20041;-70
2021/05/09 00:05:27;;;;;;;6.10;3.20;;;;;;;7.97;100.00;95529.00;1042743;28;20095;-73
2021/05/09 00:05:58;;;;;;;4.13;3.25;;;;;;;8.02;100.00;95534.28;1047169;28;20062;-71
2021/05/09 00:06:28;;;;;;;4.45;3.28;;;;;;;8.04;100.00;95538.19;1038386;28;20072;-71
2021/05/09 00:06:59;;;;;;;4.45;2.63;;;;;;;8.09;100.00;95542.69;1034633;28;20026;-72
2021/05/09 00:07:29;;;;;;;4.40;2.95;;;;;;;8.08;100.00;95538.50;1034443;28;20621;-67
2021/05/09 00:08:00;;;;;;;4.03;2.83;;;;;;;8.11;100.00;95537.97;1034717;28;20026;-72
2021/05/09 00:08:30;;;;;;;3.15;2.67;;;;;;;8.12;100.00;95536.97;1034783;28;20072;-71
2021/05/09 00:09:01;;;;;;;3.03;2.72;;;;;;;8.16;100.00;95540.66;1038520;28;20037;-70
2021/05/09 00:09:31;;;;;;;3.97;2.90;;;;;;;8.17;100.00;95544.03;1033850;28;20025;-71
2021/05/09 00:10:04;;;;;;;5.75;2.90;;;;;;;8.21;100.00;95542.50;1034646;28;20092;-72
2021/05/09 00:10:34;;;;;;;3.17;2.80;;;;;;;8.25;100.00;95528.69;1038534;28;20045;-70
2021/05/09 00:11:04;;;;;;;3.78;2.83;;;;;;;8.35;100.00;95537.59;1034981;28;20292;-71
2021/05/09 00:11:38;;;;;;;4.05;2.42;;;;;;;8.39;100.00;95533.50;1034533;28;20029;-71
2021/05/09 00:12:09;;;;;;;3.20;2.40;;;;;;;8.31;100.00;95516.41;1035093;28;20058;-72
2021/05/09 00:12:40;;;;;;;5.15;2.40;;;;;;;8.48;100.00;95538.00;1035163;28;20268;-71
2021/05/09 00:13:10;;;;;;;4.10;2.70;;;;;;;8.43;100.00;95524.88;1037157;28;20037;-71
2021/05/09 00:13:44;;;;;;;6.07;2.70;;;;;;;8.54;100.00;95538.78;1034779;28;20288;-72
2021/05/09 00:14:14;;;;;;;3.00;2.70;;;;;;;8.52;100.00;95533.03;1030643;28;20393;-71
2021/05/09 00:14:44;;;;;;;3.60;2.60;;;;;;;8.50;100.00;95540.34;1030890;28;20284;-71
2021/05/09 00:15:20;;;;;;;2.55;2.17;;;;;;;8.47;100.00;95530.38;1039417;28;20608;-72
2021/05/09 00:15:51;;;;;;;3.20;2.38;;;;;;;8.51;100.00;95536.69;1034185;28;20029;-71
2021/05/09 00:16:22;;;;;;;3.08;2.53;;;;;;;8.54;100.00;95536.19;1034452;28;20272;-71
2021/05/09 00:16:52;;;;;;;3.65;2.90;;;;;;;8.57;100.00;95527.81;1034356;28;20100;-70
2021/05/09 00:17:23;;;;;;;3.80;2.58;;;;;;;8.61;100.00;95526.25;1035359;28;20030;-72
2021/05/09 00:17:56;;;;;;;3.72;2.63;;;;;;;8.53;100.00;95521.53;1038378;28;20053;-70
2021/05/09 00:18:26;;;;;;;5.15;2.67;;;;;;;8.61;100.00;95530.72;1042796;28;20839;-70
2021/05/09 00:18:57;;;;;;;3.85;2.80;;;;;;;8.59;100.00;95532.81;1046317;28;20655;-71
2021/05/09 00:19:27;;;;;;;3.63;2.47;;;;;;;8.66;100.00;95526.31;1042931;28;20135;-71
2021/05/09 00:19:57;;;;;;;5.07;2.63;;;;;;;8.68;100.00;95533.88;1041426;28;20394;-70
2021/05/09 00:20:28;;;;;;;8.77;3.08;;;;;;;8.69;100.00;95533.66;1042774;28;20020;-71
2021/05/09 00:20:59;;;;;;;5.18;2.83;;;;;;;8.62;100.00;95517.41;1046846;28;20021;-70
2021/05/09 00:21:29;;;;;;;3.67;2.35;;;;;;;8.69;100.00;95532.88;1038179;28;20036;-70
2021/05/09 00:21:59;;;;;;;3.08;2.35;;;;;;;8.76;100.00;95522.94;1042939;28;20371;-70
2021/05/09 00:22:30;;;;;;;3.65;2.38;;;;;;;8.80;100.00;95528.44;1038459;28;20100;-68
2021/05/09 00:23:00;;;;;;;4.97;2.83;;;;;;;8.81;100.00;95516.94;1034695;28;20045;-71
2021/05/09 00:23:31;;;;;;;4.03;2.63;;;;;;;8.80;100.00;95523.22;1042578;28;20021;-70
2021/05/09 00:24:01;;;;;;;4.55;2.88;;;;;;;8.76;100.00;95524.78;1038685;28;20025;-72
2021/05/09 00:24:32;;;;;;;2.60;2.40;;;;;;;8.68;100.00;95511.13;1034590;28;20080;-71
2021/05/09 00:25:03;;;;;;;3.85;2.45;;;;;;;8.74;100.00;95519.78;1041622;28;20279;-69
2021/05/09 00:25:34;;;;;;;4.00;2.63;;;;;;;8.73;100.00;95521.63;1042521;28;20434;-71
2021/05/09 00:26:04;;;;;;;3.45;2.58;;;;;;;8.62;100.00;95506.94;1033289;28;20269;-70
2021/05/09 00:26:35;;;;;;;3.75;2.50;;;;;;;8.70;100.00;95524.75;1030614;28;20504;-71
2021/05/09 00:27:05;;;;;;;5.22;2.45;;;;;;;8.71;100.00;95520.28;1034526;28;20522;-71
2021/05/09 00:27:36;;;;;;;3.05;2.42;;;;;;;8.73;100.00;95519.00;1034643;28;20037;-72
2021/05/09 00:28:06;;;;;;;3.40;2.53;;;;;;;8.76;100.00;95524.78;1038750;28;20040;-72
2021/05/09 00:28:37;;;;;;;3.45;2.45;;;;;;;8.74;100.00;95525.81;1042471;28;20021;-70
2021/05/09 00:29:07;;;;;;;2.60;2.40;;;;;;;8.68;100.00;95516.34;1034456;28;20030;-72
2021/05/09 00:29:38;;;;;;;2.80;2.20;;;;;;;8.70;100.00;95516.91;1030520;28;20081;-72
2021/05/09 00:30:11;;;;;;;2.70;2.50;;;;;;;8.77;100.00;95523.72;1037788;28;20704;-70
2021/05/09 00:30:42;;;;;;;3.08;2.30;;;;;;;8.78;100.00;95515.59;1042685;28;20290;-72
2021/05/09 00:31:12;;;;;;;3.60;2.65;;;;;;;8.76;100.00;95522.16;1043020;28;20276;-72
2021/05/09 00:31:43;;;;;;;4.25;2.50;;;;;;;8.72;100.00;95511.44;1042044;28;20033;-71
2021/05/09 00:32:14;;;;;;;3.13;2.42;;;;;;;8.77;100.00;95513.25;1038609;28;20040;-71
2021/05/09 00:32:44;;;;;;;4.97;2.20;;;;;;;8.55;100.00;95485.47;1038589;28;20482;-70
2021/05/09 00:33:14;;;;;;;4.05;2.38;;;;;;;8.71;100.00;95515.84;1034524;28;20030;-71
2021/05/09 00:33:45;;;;;;;2.92;2.65;;;;;;;8.71;100.00;95518.47;1030497;28;20033;-72
2021/05/09 00:34:15;;;;;;;2.50;2.30;;;;;;;8.69;100.00;95511.94;1038797;28;20482;-68
2021/05/09 00:34:46;;;;;;;2.53;2.20;;;;;;;8.67;100.00;95511.41;1038534;28;20029;-72
2021/05/09 00:35:16;;;;;;;3.30;2.47;;;;;;;8.58;100.00;95499.84;1037396;28;20037;-71
2021/05/09 00:35:47;;;;;;;2.70;2.20;;;;;;;8.67;100.00;95512.19;1038290;28;20025;-70
2021/05/09 00:36:18;;;;;;;6.47;2.30;;;;;;;8.65;100.00;95511.66;1037245;28;21502;-71
2021/05/09 00:36:48;;;;;;;4.40;2.05;;;;;;;8.64;100.00;95522.38;1038464;28;20029;-70
2021/05/09 00:37:19;;;;;;;3.03;2.58;;;;;;;8.52;100.00;95501.66;1042907;28;20025;-71
2021/05/09 00:37:49;;;;;;;2.90;2.40;;;;;;;8.58;100.00;95523.38;1045027;28;20166;-71
2021/05/09 00:38:19;;;;;;;4.05;2.30;;;;;;;8.56;100.00;95523.66;1042657;28;20036;-70
2021/05/09 00:38:50;;;;;;;3.00;2.30;;;;;;;8.57;100.00;95517.38;1046821;28;20091;-71
2021/05/09 00:39:21;;;;;;;2.50;2.28;;;;;;;8.56;100.00;95523.66;1046904;28;20037;-71
2021/05/09 00:39:54;;;;;;;2.42;2.10;;;;;;;8.56;100.00;95518.41;1040319;28;20029;-71
2021/05/09 00:40:25;;;;;;;3.28;2.20;;;;;;;8.58;100.00;95516.31;1046799;28;20266;-70
2021/05/09 00:40:55;;;;;;;5.80;2.33;;;;;;;8.59;100.00;95517.91;1051196;28;20032;-72
2021/05/09 00:41:25;;;;;;;4.90;2.50;;;;;;;8.62;100.00;95514.00;1043686;28;20039;-72
2021/05/09 00:42:06;;;;;;;3.28;2.45;;;;;;;8.64;100.00;95515.28;1038356;28;20022;-72
2021/05/09 00:42:36;;;;;;;2.88;2.30;;;;;;;8.66;100.00;95508.00;1039032;28;20083;-71
2021/05/09 00:43:07;;;;;;;3.50;2.42;;;;;;;8.68;100.00;95516.34;1040183;28;20181;-71
2021/05/09 00:43:37;;;;;;;3.25;2.45;;;;;;;8.68;100.00;95513.75;1039933;28;20483;-71
2021/05/09 00:44:08;;;;;;;3.95;2.60;;;;;;;8.59;100.00;95504.84;1042840;28;20025;-72
2021/05/09 00:44:38;;;;;;;2.63;2.35;;;;;;;8.68;100.00;95516.34;1038934;28;20060;-71
2021/05/09 00:45:09;;;;;;;2.72;2.22;;;;;;;8.56;100.00;95492.25;1038166;28;20641;-70
2021/05/09 00:45:40;;;;;;;5.85;2.38;;;;;;;8.69;100.00;95512.72;1042961;28;20463;-72
2021/05/09 00:46:10;;;;;;;2.78;2.55;;;;;;;8.70;100.00;95513.50;1038796;28;20033;-71
2021/05/09 00:46:41;;;;;;;3.45;2.70;;;;;;;8.74;100.00;95511.94;1043212;28;20025;-70
2021/05/09 00:47:12;;;;;;;2.75;2.20;;;;;;;8.69;100.00;95507.50;1042865;28;20024;-71
2021/05/09 00:47:42;;;;;;;3.88;2.78;;;;;;;8.75;100.00;95516.13;1039130;28;20112;-71
2021/05/09 00:48:13;;;;;;;4.57;2.38;;;;;;;8.59;100.00;95485.75;1038599;28;20299;-69
2021/05/09 00:48:43;;;;;;;3.45;2.70;;;;;;;8.65;100.00;95500.38;1034649;28;20572;-72
2021/05/09 00:49:14;;;;;;;3.15;2.60;;;;;;;8.63;100.00;95503.28;1031011;28;20025;-72
2021/05/09 00:49:44;;;;;;;2.50;2.17;;;;;;;8.66;100.00;95501.97;1030784;28;20162;-72
2021/05/09 00:50:15;;;;;;;2.58;2.30;;;;;;;8.70;100.00;95506.44;1030589;28;20093;-72
2021/05/09 00:50:46;;;;;;;2.85;2.35;;;;;;;8.71;100.00;95513.22;1030862;28;20030;-72
2021/05/09 00:51:16;;;;;;;3.67;2.70;;;;;;;8.71;100.00;95510.63;1035231;28;20073;-72
2021/05/09 00:51:50;;;;;;;3.78;2.42;;;;;;;8.69;100.00;95507.50;1042398;28;20033;-70
2021/05/09 00:52:20;;;;;;;3.65;2.60;;;;;;;8.69;100.00;95511.94;1043517;28;20532;-72
2021/05/09 00:52:51;;;;;;;4.85;2.60;;;;;;;8.69;100.00;95506.72;1038776;28;20263;-71
2021/05/09 00:53:22;;;;;;;3.20;2.10;;;;;;;8.63;99.63;95495.44;1038991;28;20029;-71
2021/05/09 00:53:53;;;;;;;3.17;2.33;;;;;;;8.67;99.26;95500.94;1038587;28;20590;-73
2021/05/09 00:54:23;;;;;;;4.28;2.40;;;;;;;8.68;99.63;95505.88;1034674;28;20260;-71
2021/05/09 00:54:58;;;;;;;2.30;2.08;;;;;;;8.66;100.00;95500.16;1030650;28;20022;-71
2021/05/09 00:55:28;;;;;;;3.17;1.75;;;;;;;8.60;99.38;95493.31;1036556;28;20022;-72
2021/05/09 00:55:59;;;;;;;3.83;2.25;;;;;;;8.62;100.00;95499.09;1038965;28;20256;-71
2021/05/09 00:56:29;;;;;;;2.20;2.03;;;;;;;8.63;99.64;95498.03;1038522;28;20029;-72
2021/05/09 00:57:00;;;;;;;3.47;2.25;;;;;;;8.59;99.91;95489.13;1035904;28;20029;-71
2021/05/09 00:57:32;;;;;;;2.83;2.10;;;;;;;8.63;99.49;95503.28;1047161;28;20044;-72
2021/05/09 00:58:03;;;;;;;2.53;2.30;;;;;;;8.57;99.69;95493.81;1034876;28;20098;-72
2021/05/09 00:58:35;;;;;;;3.83;2.33;;;;;;;8.51;99.68;95484.38;1030937;28;20288;-71
2021/05/09 00:59:05;;;;;;;3.72;2.15;;;;;;;8.58;100.00;95498.00;1026723;28;20019;-71
2021/05/09 00:59:36;;;;;;;5.80;2.03;;;;;;;8.60;99.79;95503.00;1030827;28;20289;-73
2021/05/09 01:00:11;;;;;;;3.40;2.00;;;;;;;8.56;99.68;95492.25;1034695;28;20073;-70
2021/05/09 01:00:41;;;;;;;2.80;2.30;;;;;;;8.57;99.60;95496.44;1042425;28;20031;-71
2021/05/09 01:01:12;;;;;;;2.72;2.00;;;;;;;8.56;99.44;95497.50;1038808;28;20780;-71
2021/05/09 01:01:42;;;;;;;2.65;1.80;;;;;;;8.57;99.65;95499.06;1031481;28;20026;-71
2021/05/09 01:02:13;;;;;;;3.30;2.33;;;;;;;8.58;99.09;95499.84;1038273;28;20151;-72
2021/05/09 01:02:45;;;;;;;3.15;1.77;;;;;;;8.55;99.03;95501.16;1038778;28;20124;-71
2021/05/09 01:03:15;;;;;;;3.85;2.00;;;;;;;8.56;98.33;95492.25;1043025;28;20414;-71
2021/05/09 01:03:46;;;;;;;2.88;2.00;;;;;;;8.63;98.35;95500.66;1034448;28;20263;-71
2021/05/09 01:04:17;;;;;;;3.92;2.10;;;;;;;8.55;98.15;95489.88;1038904;28;20076;-69
2021/05/09 01:04:47;;;;;;;2.15;1.80;;;;;;;8.59;98.77;95496.97;1034466;28;21096;-71
2021/05/09 01:05:17;;;;;;;2.63;2.00;;;;;;;8.63;98.37;95500.66;1026199;28;20740;-72
2021/05/09 01:05:48;;;;;;;1.80;1.70;;;;;;;8.59;98.66;95502.22;1033948;28;20439;-68
2021/05/09 01:06:18;;;;;;;2.35;1.83;;;;;;;8.52;98.57;95496.44;1039255;28;20029;-71
2021/05/09 01:06:49;;;;;;;2.28;1.55;;;;;;;8.50;97.42;95493.28;1034977;28;20018;-72
2021/05/09 01:07:19;;;;;;;2.85;1.67;;;;;;;8.57;97.71;95498.28;1036221;28;20017;-71
2021/05/09 01:07:50;;;;;;;2.58;1.70;;;;;;;8.57;97.88;95498.28;1037822;28;20013;-72
2021/05/09 01:08:20;;;;;;;2.67;1.98;;;;;;;8.53;97.98;95487.53;1034918;28;20026;-72
2021/05/09 01:08:51;;;;;;;2.72;2.00;;;;;;;8.60;97.84;95498.56;1031492;28;20585;-71
2021/05/09 01:09:21;;;;;;;2.35;1.70;;;;;;;8.60;97.99;95500.38;1034794;28;20084;-71
2021/05/09 01:09:52;;;;;;;2.85;2.00;;;;;;;8.59;98.13;95501.44;1041779;28;20024;-72
2021/05/09 01:10:22;;;;;;;2.72;2.08;;;;;;;8.58;98.52;95499.84;1042917;28;20083;-70
2021/05/09 01:10:53;;;;;;;1.63;1.52;;;;;;;8.59;98.24;95496.19;1034571;28;20022;-75
2021/05/09 01:11:23;;;;;;;2.45;1.70;;;;;;;8.58;97.97;95500.63;1030353;28;20034;-72
2021/05/09 01:11:54;;;;;;;2.92;1.65;;;;;;;8.52;97.67;95493.00;1030732;28;20030;-71
2021/05/09 01:12:24;;;;;;;2.22;1.92;;;;;;;8.54;98.06;95499.56;1038826;28;20018;-72
2021/05/09 01:12:55;;;;;;;7.18;2.03;;;;;;;8.55;98.79;95495.94;1043564;28;20494;-71
2021/05/09 01:13:26;;;;;;;3.17;1.98;;;;;;;8.50;98.30;95493.28;1042488;28;20659;-72
2021/05/09 01:13:56;;;;;;;3.30;1.88;;;;;;;8.56;97.94;95499.31;1043976;28;20271;-68
2021/05/09 01:14:26;;;;;;;4.40;1.73;;;;;;;8.44;98.21;95495.06;1047030;28;20024;-71
2021/05/09 01:14:57;;;;;;;2.30;2.00;;;;;;;8.43;98.53;95484.88;1038218;28;20025;-72
2021/05/09 01:15:28;;;;;;;2.70;1.95;;;;;;;8.43;97.84;95485.66;1033887;28;20013;-72
2021/05/09 01:16:02;;;;;;;2.60;1.80;;;;;;;8.46;97.67;95484.38;1034622;28;20002;-72
2021/05/09 01:16:33;;;;;;;3.58;2.00;;;;;;;8.53;97.94;95495.38;1034483;28;20041;-72
2021/05/09 01:17:03;;;;;;;3.13;1.63;;;;;;;8.40;97.86;95488.00;1034340;28;20253;-72
2021/05/09 01:17:35;;;;;;;2.90;1.83;;;;;;;8.52;97.71;95506.09;1031576;28;20158;-72
2021/05/09 01:18:05;;;;;;;2.20;1.77;;;;;;;8.51;98.13;95497.47;1034671;28;20022;-72
2021/05/09 01:18:35;;;;;;;3.20;1.83;;;;;;;8.48;98.55;95500.56;1037962;28;20327;-72
2021/05/09 01:19:06;;;;;;;2.53;1.77;;;;;;;8.48;98.55;95504.00;1037263;28;20502;-71
2021/05/09 01:19:36;;;;;;;2.45;1.90;;;;;;;8.46;99.12;95513.13;1038772;28;20366;-71
2021/05/09 01:20:13;;;;;;;5.60;1.90;;;;;;;8.43;99.64;95501.34;1034820;28;20018;-71
2021/05/09 01:20:43;;;;;;;1.73;1.63;;;;;;;8.46;98.89;95497.44;1039210;28;20517;-71
2021/05/09 01:21:14;;;;;;;3.20;2.10;;;;;;;8.46;99.35;95497.44;1026606;28;20352;-72
2021/05/09 01:21:46;;;;;;;3.00;2.05;;;;;;;8.46;98.76;95505.28;1026075;28;20754;-70
2021/05/09 01:22:20;;;;;;;3.58;1.90;;;;;;;8.44;98.96;95496.91;1027378;28;20015;-72
2021/05/09 01:22:52;;;;;;;2.85;1.50;;;;;;;8.41;99.40;95502.63;1033574;28;20246;-71
2021/05/09 01:23:23;;;;;;;2.67;1.70;;;;;;;8.41;99.38;95500.03;1036670;28;20017;-70
2021/05/09 01:23:53;;;;;;;2.92;2.03;;;;;;;8.40;99.27;95501.06;1038686;28;20745;-71
2021/05/09 01:24:24;;;;;;;3.08;2.20;;;;;;;8.39;100.00;95502.91;1038783;28;20017;-72
2021/05/09 01:24:54;;;;;;;2.38;1.70;;;;;;;8.33;99.28;95488.19;1034664;28;20014;-71
2021/05/09 01:25:25;;;;;;;3.08;1.98;;;;;;;8.40;99.39;95503.69;1038155;28;20394;-70
2021/05/09 01:25:56;;;;;;;5.60;1.95;;;;;;;8.35;99.66;95503.63;1045122;28;20655;-71
2021/05/09 01:26:26;;;;;;;3.50;2.00;;;;;;;8.35;100.00;95501.00;1042742;28;20017;-70
2021/05/09 01:26:56;;;;;;;2.38;1.80;;;;;;;8.34;100.00;95496.81;1043109;28;20086;-70
2021/05/09 01:27:29;;;;;;;2.38;2.10;;;;;;;8.34;100.00;95507.28;1046915;28;20013;-70
2021/05/09 01:27:59;;;;;;;2.53;2.00;;;;;;;8.32;99.55;95502.31;1038570;28;20005;-71
2021/05/09 01:28:30;;;;;;;2.42;2.20;;;;;;;8.23;100.00;95488.94;1037526;28;20256;-72
2021/05/09 01:29:00;;;;;;;2.97;1.70;;;;;;;8.22;100.00;95492.59;1030721;28;20018;-71
2021/05/09 01:29:32;;;;;;;2.78;1.60;;;;;;;8.33;99.85;95508.34;1038687;28;20463;-70
2021/05/09 01:30:06;;;;;;;5.32;2.00;;;;;;;8.34;99.21;95504.66;1037083;28;20010;-72
2021/05/09 01:30:36;;;;;;;2.42;2.00;;;;;;;8.31;99.80;95503.34;1039571;28;20260;-71
2021/05/09 01:31:07;;;;;;;2.30;1.80;;;;;;;8.33;99.33;95500.50;1040288;28;20263;-71
2021/05/09 01:31:43;;;;;;;2.72;1.75;;;;;;;8.29;99.34;95502.03;1038410;28;20080;-71
2021/05/09 01:32:14;;;;;;;2.28;1.73;;;;;;;8.25;99.74;95491.31;1039586;28;20025;-72
2021/05/09 01:32:44;;;;;;;2.83;1.85;;;;;;;8.23;100.00;95498.59;1043097;28;20271;-70
2021/05/09 01:33:15;;;;;;;2.15;1.70;;;;;;;8.21;100.00;95500.69;1042305;28;20025;-72
2021/05/09 01:33:45;;;;;;;2.97;1.60;;;;;;;8.18;100.00;95499.38;1038751;28;20021;-70
2021/05/09 01:34:16;;;;;;;1.90;1.67;;;;;;;8.18;100.00;95502.00;1042750;28;20017;-68
2021/05/09 01:34:49;;;;;;;2.53;1.88;;;;;;;8.24;100.00;95498.34;1038788;28;20025;-71
2021/05/09 01:35:19;;;;;;;3.28;1.90;;;;;;;8.24;99.59;95500.16;1033808;28;20076;-70
2021/05/09 01:35:50;;;;;;;1.98;1.60;;;;;;;8.23;99.31;95491.53;1034638;28;20319;-72
2021/05/09 01:36:20;;;;;;;2.13;1.63;;;;;;;8.21;99.41;95491.00;1037869;28;20032;-72
2021/05/09 01:36:50;;;;;;;2.88;1.88;;;;;;;8.23;100.00;95494.16;1034315;28;20026;-72
2021/05/09 01:37:21;;;;;;;2.10;1.80;;;;;;;8.25;100.00;95501.75;1042743;28;20032;-71
2021/05/09 01:37:52;;;;;;;2.13;1.85;;;;;;;8.15;100.00;95480.78;1042593;28;20028;-71
2021/05/09 01:38:22;;;;;;;2.55;1.75;;;;;;;8.22;99.67;95489.19;1038741;28;20021;-72
2021/05/09 01:38:55;;;;;;;4.10;1.70;;;;;;;8.21;99.18;95488.38;1042806;28;20017;-71
2021/05/09 01:39:26;;;;;;;3.45;1.85;;;;;;;8.21;99.21;95493.63;1042807;28;20017;-71
2021/05/09 01:39:56;;;;;;;2.40;1.80;;;;;;;8.18;99.41;95493.34;1038769;28;20276;-71
2021/05/09 01:40:27;;;;;;;2.42;1.40;;;;;;;8.17;100.00;95489.94;1033944;28;20021;-72
2021/05/09 01:40:57;;;;;;;6.78;1.95;;;;;;;8.07;100.00;95476.81;1035138;28;20045;-72
2021/05/09 01:41:28;;;;;;;3.70;1.95;;;;;;;8.13;100.00;95494.09;1042831;28;20469;-72
2021/05/09 01:42:00;;;;;;;2.20;1.80;;;;;;;8.14;100.00;95485.22;1040330;28;20024;-71
2021/05/09 01:42:31;;;;;;;5.72;2.35;;;;;;;8.16;100.00;95490.22;1038654;28;20029;-72
2021/05/09 01:43:04;;;;;;;2.95;1.80;;;;;;;8.04;100.00;95474.72;1034563;28;20707;-72
2021/05/09 01:43:35;;;;;;;2.03;1.55;;;;;;;8.09;100.00;95487.03;1035624;28;20026;-71
2021/05/09 01:44:06;;;;;;;1.77;1.52;;;;;;;8.10;100.00;95486.78;1043674;28;20267;-69
2021/05/09 01:44:36;;;;;;;2.50;1.60;;;;;;;8.13;100.00;95490.72;1031753;28;20833;-70
2021/05/09 01:45:07;;;;;;;4.00;2.00;;;;;;;8.17;100.00;95489.94;1027971;28;20032;-70
2021/05/09 01:45:38;;;;;;;2.38;1.70;;;;;;;8.17;100.00;95483.94;1024422;28;20500;-71
2021/05/09 01:46:11;;;;;;;2.80;1.85;;;;;;;8.18;100.00;95486.31;1033393;28;20305;-72
2021/05/09 01:46:41;;;;;;;3.58;1.80;;;;;;;8.13;100.00;95483.66;1042510;28;20028;-72
2021/05/09 01:47:12;;;;;;;1.95;1.65;;;;;;;8.12;100.00;95478.69;1038089;28;20276;-71
2021/05/09 01:47:42;;;;;;;2.60;1.90;;;;;;;8.13;100.00;95482.88;1042250;28;20060;-72
2021/05/09 01:48:13;;;;;;;2.10;1.90;;;;;;;8.09;100.00;95489.66;1034550;28;20026;-71
2021/05/09 01:48:43;;;;;;;2.13;1.38;;;;;;;8.04;100.00;95482.53;1042391;28;20021;-72
2021/05/09 01:49:14;;;;;;;5.10;2.50;;;;;;;8.01;100.00;95483.03;1046602;28;20024;-68
2021/05/09 01:49:44;;;;;;;4.50;2.13;;;;;;;7.98;100.00;95483.53;1042460;28;20029;-71
2021/05/09 01:50:16;;;;;;;3.03;1.80;;;;;;;7.90;100.00;95478.81;1042370;28;20518;-71
2021/05/09 01:50:49;;;;;;;1.73;1.60;;;;;;;7.96;100.00;95480.41;1033844;28;20044;-70
2021/05/09 01:51:19;;;;;;;2.15;1.50;;;;;;;7.86;100.00;95464.69;1034307;28;20257;-68
2021/05/09 01:51:50;;;;;;;2.35;1.40;;;;;;;7.91;100.00;95480.38;1029832;28;20308;-70
2021/05/09 01:52:20;;;;;;;1.50;1.30;;;;;;;7.90;100.00;95473.59;1042599;28;20033;-71
2021/05/09 01:52:51;;;;;;;2.42;1.80;;;;;;;7.85;100.00;95468.34;1042392;28;20044;-71
2021/05/09 01:53:24;;;;;;;11.02;2.00;;;;;;;7.88;100.00;95483.47;1034368;28;20050;-71
2021/05/09 01:53:55;;;;;;;2.83;1.52;;;;;;;7.87;100.00;95477.47;1033727;28;20021;-71
2021/05/09 01:54:28;;;;;;;3.08;1.80;;;;;;;7.92;100.00;95481.97;1035217;28;20253;-72
2021/05/09 01:54:58;;;;;;;4.82;1.52;;;;;;;7.90;100.00;95476.97;1038243;28;20038;-72
2021/05/09 01:55:28;;;;;;;2.03;1.60;;;;;;;7.89;100.00;95475.41;1040173;28;20251;-71
2021/05/09 01:55:59;;;;;;;3.78;1.80;;;;;;;7.91;100.00;95477.75;1038949;28;20767;-70
2021/05/09 01:56:32;;;;;;;2.63;1.73;;;;;;;7.90;100.00;95474.38;1042328;28;20080;-72
2021/05/09 01:57:03;;;;;;;4.40;1.58;;;;;;;7.87;100.00;95474.09;1041970;28;20838;-71
2021/05/09 01:57:33;;;;;;;2.22;1.75;;;;;;;7.88;100.00;95478.25;1038872;28;20278;-72
2021/05/09 01:58:04;;;;;;;2.30;1.80;;;;;;;7.85;100.00;95486.63;1038393;28;20034;-72
2021/05/09 01:58:34;;;;;;;3.00;1.80;;;;;;;7.75;100.00;95471.66;1029827;28;20018;-72
2021/05/09 01:59:08;;;;;;;2.63;1.58;;;;;;;7.77;100.00;95483.41;1036327;28;20017;-71
2021/05/09 01:59:41;;;;;;;2.53;1.80;;;;;;;7.77;100.00;95486.03;1038341;28;20033;-71
2021/05/09 02:00:12;;;;;;;2.60;1.80;;;;;;;7.79;100.00;95480.56;1034286;28;20350;-71
2021/05/09 02:00:43;;;;;;;2.40;1.70;;;;;;;7.75;100.00;95482.91;1034317;28;20754;-70
2021/05/09 02:01:13;;;;;;;2.13;1.85;;;;;;;7.74;100.00;95483.91;1036206;28;20334;-70
2021/05/09 02:01:44;;;;;;;2.17;1.55;;;;;;;7.74;100.00;95486.53;1039189;28;20032;-73
2021/05/09 02:02:14;;;;;;;2.90;1.92;;;;;;;7.75;100.00;95480.28;1049199;28;20020;-72
2021/05/09 02:02:45;;;;;;;4.93;2.00;;;;;;;7.69;100.00;95473.44;1050828;28;20020;-71
2021/05/09 02:03:15;;;;;;;1.77;1.60;;;;;;;7.77;100.00;95480.81;1038456;28;20032;-71
2021/05/09 02:03:46;;;;;;;2.13;1.85;;;;;;;7.70;100.00;95475.00;1041699;28;20029;-73
2021/05/09 02:04:16;;;;;;;2.75;1.90;;;;;;;7.75;100.00;95482.13;1042662;28;20021;-72
2021/05/09 02:04:47;;;;;;;3.28;1.85;;;;;;;7.74;100.00;95478.69;1042633;28;20017;-71
2021/05/09 02:05:17;;;;;;;2.80;1.88;;;;;;;7.73;100.00;95484.19;1041856;28;20029;-72
2021/05/09 02:05:48;;;;;;;2.83;2.10;;;;;;;7.74;100.00;95478.69;1046402;28;20060;-72
2021/05/09 02:06:18;;;;;;;3.15;1.92;;;;;;;7.74;100.00;95477.91;1042741;28;20048;-68
2021/05/09 02:06:49;;;;;;;2.00;1.80;;;;;;;7.71;100.00;95473.19;1046823;28;20492;-72
2021/05/09 02:07:19;;;;;;;3.58;2.10;;;;;;;7.74;100.00;95478.69;1046058;28;20039;-71
2021/05/09 02:07:50;;;;;;;7.57;1.90;;;;;;;7.64;100.00;95464.78;1046569;28;20024;-72
2021/05/09 02:08:22;;;;;;;3.13;1.90;;;;;;;7.83;100.00;95473.00;1042501;28;20025;-72
2021/05/09 02:08:56;;;;;;;1.98;1.70;;;;;;;7.84;100.00;95480.59;1034492;28;20038;-72
2021/05/09 02:09:26;;;;;;;4.20;1.83;;;;;;;7.83;100.00;95473.78;1038226;28;20279;-72
2021/05/09 02:09:56;;;;;;;3.25;2.08;;;;;;;7.85;100.00;95476.19;1039998;28;20268;-72
2021/05/09 02:10:27;;;;;;;2.67;1.83;;;;;;;7.80;100.00;95475.09;1047019;28;20028;-72
2021/05/09 02:10:57;;;;;;;4.22;1.75;;;;;;;7.82;100.00;95474.06;1042301;28;20048;-72
2021/05/09 02:11:28;;;;;;;2.03;1.60;;;;;;;7.85;100.00;95468.34;1036992;28;20034;-71
2021/05/09 02:11:58;;;;;;;2.20;1.52;;;;;;;7.84;100.00;95470.13;1038411;28;20028;-71
2021/05/09 02:12:29;;;;;;;3.25;1.70;;;;;;;7.86;100.00;95468.06;1038332;28;20017;-72
2021/05/09 02:12:59;;;;;;;2.85;1.83;;;;;;;7.86;100.00;95470.69;1042165;28;20032;-72
2021/05/09 02:13:32;;;;;;;3.63;1.80;;;;;;;7.85;100.00;95468.34;1046549;28;20025;-71
2021/05/09 02:14:03;;;;;;;1.63;1.50;;;;;;;7.84;100.00;95464.91;1052687;28;20027;-72
2021/05/09 02:14:33;;;;;;;3.20;1.83;;;;;;;7.79;100.00;95463.06;1042122;28;20275;-71
2021/05/09 02:15:05;;;;;;;2.70;1.70;;;;;;;7.82;100.00;95461.78;1033791;28;20050;-70
2021/05/09 02:15:36;;;;;;;2.20;1.80;;;;;;;7.82;100.00;95461.00;1030681;28;20022;-69
2021/05/09 02:16:06;;;;;;;2.03;1.63;;;;;;;7.84;100.00;95459.69;1034227;28;20778;-72
2021/05/09 02:16:37;;;;;;;1.67;1.50;;;;;;;7.83;100.00;95468.56;1033884;28;20037;-70
2021/05/09 02:17:07;;;;;;;3.13;1.98;;;;;;;7.80;100.00;95459.41;1034177;28;20033;-70
2021/05/09 02:17:38;;;;;;;1.85;1.50;;;;;;;7.77;100.00;95456.50;1034397;28;20021;-72
2021/05/09 02:18:08;;;;;;;1.80;1.60;;;;;;;7.81;100.00;95465.41;1033658;28;20041;-71
2021/05/09 02:18:39;;;;;;;1.70;1.60;;;;;;;7.87;100.00;95458.41;1033540;28;20098;-71
2021/05/09 02:19:09;;;;;;;2.15;1.73;;;;;;;7.87;100.00;95464.41;1038192;28;20029;-72
2021/05/09 02:19:40;;;;;;;2.65;1.77;;;;;;;7.87;100.00;95463.63;1029793;28;20038;-72
2021/05/09 02:20:11;;;;;;;3.95;2.00;;;;;;;7.85;100.00;95470.94;1030068;28;20138;-71
2021/05/09 02:20:41;;;;;;;4.45;1.95;;;;;;;7.83;100.00;95473.00;1030484;28;20616;-72
2021/05/09 02:21:11;;;;;;;2.40;1.52;;;;;;;7.84;100.00;95469.34;1034324;28;20034;-72
2021/05/09 02:21:45;;;;;;;2.53;1.67;;;;;;;7.78;100.00;95461.50;1041506;28;20028;-71
2021/05/09 02:22:15;;;;;;;3.45;1.98;;;;;;;7.78;100.00;95464.13;1042423;28;20036;-72
2021/05/09 02:22:46;;;;;;;3.95;2.10;;;;;;;7.87;100.00;95472.25;1038927;28;20790;-72
2021/05/09 02:23:16;;;;;;;5.60;1.80;;;;;;;7.86;100.00;95468.06;1047070;28;20086;-70
2021/05/09 02:23:47;;;;;;;3.15;1.73;;;;;;;7.85;100.00;95463.13;1046252;28;20021;-72
2021/05/09 02:24:20;;;;;;;4.07;1.80;;;;;;;7.80;100.00;95463.84;1046808;28;20028;-72
2021/05/09 02:24:53;;;;;;;2.90;1.85;;;;;;;7.77;100.00;95465.13;1050001;28;20604;-70
2021/05/09 02:25:24;;;;;;;2.97;1.65;;;;;;;7.72;100.00;95461.72;1046630;28;20259;-71
2021/05/09 02:25:54;;;;;;;6.63;2.65;;;;;;;7.71;100.00;95466.16;1050844;28;20035;-72
2021/05/09 02:26:28;;;;;;;2.72;1.70;;;;;;;7.67;100.00;95467.69;1045750;28;20037;-71